Byron, Michigan
Current Conditions -  °F | °C
As of 11:35 AM on Friday 21 Nov 2014 (Local Time) from KOZW Reporting Station
Clear Clear  
Wind Chill: 11°   Ceiling: Unl
Heat Index: 22°   Visibility: 10mi
Dew Point:   Wind: 10mph
Humidity: 58%   Direction: 260°W
Pressure: 30.44"   Gusts: NA
Location:  42.82°N, 83.94°W
Report Text: KOZW 211635Z AUTO 26009KT 10SM CLR M06/M13 A3044 RMK AO2 T10571127
Loading
Personal Weather Stations






























Interactive Weather Map New forecast layout! Learn more

10-Day Weather Forecast

Advertisements
Track Severe Weather on mobile